sensor_id;sensor_type;location;lat;lon;timestamp;P1;durP1;ratioP1;P2;durP2;ratioP2
39188;SDS011;24915;50.858;4.376;2023-02-22T00:00:40;95.20;;;38.55;;
39188;SDS011;24915;50.858;4.376;2023-02-22T00:05:35;98.75;;;39.53;;
39188;SDS011;24915;50.858;4.376;2023-02-22T00:08:03;91.38;;;37.83;;
39188;SDS011;24915;50.858;4.376;2023-02-22T00:10:33;99.15;;;38.63;;
39188;SDS011;24915;50.858;4.376;2023-02-22T00:13:02;95.85;;;38.70;;
39188;SDS011;24915;50.858;4.376;2023-02-22T00:15:31;94.38;;;39.30;;
39188;SDS011;24915;50.858;4.376;2023-02-22T00:17:57;97.35;;;40.80;;
39188;SDS011;24915;50.858;4.376;2023-02-22T00:20:23;93.85;;;39.65;;
39188;SDS011;24915;50.858;4.376;2023-02-22T00:22:49;99.60;;;41.22;;
39188;SDS011;24915;50.858;4.376;2023-02-22T00:25:20;101.82;;;40.35;;
39188;SDS011;24915;50.858;4.376;2023-02-22T00:27:49;100.53;;;40.53;;
39188;SDS011;24915;50.858;4.376;2023-02-22T00:30:23;95.78;;;40.20;;
39188;SDS011;24915;50.858;4.376;2023-02-22T00:32:52;96.75;;;38.88;;
39188;SDS011;24915;50.858;4.376;2023-02-22T00:35:22;103.10;;;40.40;;
39188;SDS011;24915;50.858;4.376;2023-02-22T00:37:50;103.47;;;39.92;;
39188;SDS011;24915;50.858;4.376;2023-02-22T00:40:19;92.50;;;40.08;;
39188;SDS011;24915;50.858;4.376;2023-02-22T00:42:47;95.57;;;38.78;;
39188;SDS011;24915;50.858;4.376;2023-02-22T00:45:15;98.18;;;37.30;;
39188;SDS011;24915;50.858;4.376;2023-02-22T00:47:42;89.70;;;36.05;;
39188;SDS011;24915;50.858;4.376;2023-02-22T00:50:08;92.00;;;37.10;;
39188;SDS011;24915;50.858;4.376;2023-02-22T00:52:35;114.68;;;37.53;;
39188;SDS011;24915;50.858;4.376;2023-02-22T00:55:01;81.53;;;37.38;;
39188;SDS011;24915;50.858;4.376;2023-02-22T00:57:29;95.45;;;34.58;;
39188;SDS011;24915;50.858;4.376;2023-02-22T00:59:55;87.35;;;35.38;;
39188;SDS011;24915;50.858;4.376;2023-02-22T01:02:21;84.47;;;37.05;;
39188;SDS011;24915;50.858;4.376;2023-02-22T01:04:47;89.22;;;36.10;;
39188;SDS011;24915;50.858;4.376;2023-02-22T01:07:12;96.50;;;35.67;;
39188;SDS011;24915;50.858;4.376;2023-02-22T01:09:38;97.53;;;35.63;;
39188;SDS011;24915;50.858;4.376;2023-02-22T01:12:05;87.63;;;36.92;;
39188;SDS011;24915;50.858;4.376;2023-02-22T01:14:32;84.18;;;37.10;;
39188;SDS011;24915;50.858;4.376;2023-02-22T01:16:58;106.43;;;35.67;;
39188;SDS011;24915;50.858;4.376;2023-02-22T01:19:23;84.70;;;37.67;;
39188;SDS011;24915;50.858;4.376;2023-02-22T01:21:49;87.38;;;36.72;;
39188;SDS011;24915;50.858;4.376;2023-02-22T01:24:15;79.00;;;36.13;;
39188;SDS011;24915;50.858;4.376;2023-02-22T01:26:42;94.32;;;35.63;;
39188;SDS011;24915;50.858;4.376;2023-02-22T01:29:13;107.55;;;35.25;;
39188;SDS011;24915;50.858;4.376;2023-02-22T01:31:40;83.07;;;33.88;;
39188;SDS011;24915;50.858;4.376;2023-02-22T01:34:10;82.30;;;36.28;;
39188;SDS011;24915;50.858;4.376;2023-02-22T01:36:37;75.70;;;35.55;;
39188;SDS011;24915;50.858;4.376;2023-02-22T01:39:04;78.50;;;35.55;;
39188;SDS011;24915;50.858;4.376;2023-02-22T01:41:30;79.78;;;35.50;;
39188;SDS011;24915;50.858;4.376;2023-02-22T01:43:56;77.95;;;35.75;;
39188;SDS011;24915;50.858;4.376;2023-02-22T01:46:25;77.97;;;36.03;;
39188;SDS011;24915;50.858;4.376;2023-02-22T01:48:58;77.60;;;36.00;;
39188;SDS011;24915;50.858;4.376;2023-02-22T01:51:30;73.82;;;33.47;;
39188;SDS011;24915;50.858;4.376;2023-02-22T01:54:13;74.28;;;34.13;;
39188;SDS011;24915;50.858;4.376;2023-02-22T01:59:25;67.90;;;32.95;;
39188;SDS011;24915;50.858;4.376;2023-02-22T02:01:57;70.75;;;34.10;;
39188;SDS011;24915;50.858;4.376;2023-02-22T02:04:23;71.50;;;32.50;;
39188;SDS011;24915;50.858;4.376;2023-02-22T02:06:53;62.05;;;31.52;;
39188;SDS011;24915;50.858;4.376;2023-02-22T02:12:11;63.08;;;31.95;;
39188;SDS011;24915;50.858;4.376;2023-02-22T02:14:40;57.88;;;30.33;;
39188;SDS011;24915;50.858;4.376;2023-02-22T02:17:08;60.38;;;30.77;;
39188;SDS011;24915;50.858;4.376;2023-02-22T02:33:51;51.60;;;27.90;;
39188;SDS011;24915;50.858;4.376;2023-02-22T02:36:28;53.63;;;28.45;;
39188;SDS011;24915;50.858;4.376;2023-02-22T02:41:52;55.63;;;29.90;;
39188;SDS011;24915;50.858;4.376;2023-02-22T02:44:23;49.38;;;26.80;;
39188;SDS011;24915;50.858;4.376;2023-02-22T02:47:26;51.13;;;28.23;;
39188;SDS011;24915;50.858;4.376;2023-02-22T02:50:13;46.90;;;27.20;;
39188;SDS011;24915;50.858;4.376;2023-02-22T02:53:01;50.80;;;28.92;;
39188;SDS011;24915;50.858;4.376;2023-02-22T02:55:29;55.05;;;29.42;;
39188;SDS011;24915;50.858;4.376;2023-02-22T02:57:56;55.63;;;29.25;;
39188;SDS011;24915;50.858;4.376;2023-02-22T03:00:24;53.75;;;28.98;;
39188;SDS011;24915;50.858;4.376;2023-02-22T03:05:53;49.90;;;27.70;;
39188;SDS011;24915;50.858;4.376;2023-02-22T03:08:47;49.42;;;27.67;;
39188;SDS011;24915;50.858;4.376;2023-02-22T03:11:27;47.00;;;25.98;;
39188;SDS011;24915;50.858;4.376;2023-02-22T03:16:43;51.20;;;29.00;;
39188;SDS011;24915;50.858;4.376;2023-02-22T03:22:05;43.97;;;25.83;;
39188;SDS011;24915;50.858;4.376;2023-02-22T03:29:52;41.50;;;24.67;;
39188;SDS011;24915;50.858;4.376;2023-02-22T03:32:24;41.17;;;24.65;;
39188;SDS011;24915;50.858;4.376;2023-02-22T03:35:09;39.10;;;23.73;;
39188;SDS011;24915;50.858;4.376;2023-02-22T03:37:40;40.97;;;23.85;;
39188;SDS011;24915;50.858;4.376;2023-02-22T03:40:12;40.42;;;24.77;;
39188;SDS011;24915;50.858;4.376;2023-02-22T03:42:53;43.10;;;24.52;;
39188;SDS011;24915;50.858;4.376;2023-02-22T03:45:24;39.27;;;23.20;;
39188;SDS011;24915;50.858;4.376;2023-02-22T03:47:56;38.10;;;22.27;;
39188;SDS011;24915;50.858;4.376;2023-02-22T03:50:28;40.33;;;23.13;;
39188;SDS011;24915;50.858;4.376;2023-02-22T03:52:59;40.60;;;23.80;;
39188;SDS011;24915;50.858;4.376;2023-02-22T03:55:25;40.67;;;24.05;;
39188;SDS011;24915;50.858;4.376;2023-02-22T03:58:00;37.80;;;23.42;;
39188;SDS011;24915;50.858;4.376;2023-02-22T04:00:30;40.40;;;23.00;;
39188;SDS011;24915;50.858;4.376;2023-02-22T04:02:57;41.63;;;23.95;;
39188;SDS011;24915;50.858;4.376;2023-02-22T04:05:24;40.25;;;23.95;;
39188;SDS011;24915;50.858;4.376;2023-02-22T04:07:54;37.47;;;22.80;;
39188;SDS011;24915;50.858;4.376;2023-02-22T04:10:21;40.42;;;24.42;;
39188;SDS011;24915;50.858;4.376;2023-02-22T04:12:49;36.83;;;23.13;;
39188;SDS011;24915;50.858;4.376;2023-02-22T04:15:16;36.17;;;21.75;;
39188;SDS011;24915;50.858;4.376;2023-02-22T04:17:47;38.35;;;22.73;;
39188;SDS011;24915;50.858;4.376;2023-02-22T04:20:12;36.63;;;22.67;;
39188;SDS011;24915;50.858;4.376;2023-02-22T04:22:39;37.85;;;23.65;;
39188;SDS011;24915;50.858;4.376;2023-02-22T04:25:05;35.75;;;22.88;;
39188;SDS011;24915;50.858;4.376;2023-02-22T04:27:32;35.75;;;22.27;;
39188;SDS011;24915;50.858;4.376;2023-02-22T04:29:58;37.92;;;22.92;;
39188;SDS011;24915;50.858;4.376;2023-02-22T04:32:24;36.75;;;21.73;;
39188;SDS011;24915;50.858;4.376;2023-02-22T04:34:49;37.97;;;22.13;;
39188;SDS011;24915;50.858;4.376;2023-02-22T04:37:15;38.42;;;21.75;;
39188;SDS011;24915;50.858;4.376;2023-02-22T04:39:41;33.38;;;21.15;;
39188;SDS011;24915;50.858;4.376;2023-02-22T04:42:06;37.78;;;22.05;;
39188;SDS011;24915;50.858;4.376;2023-02-22T04:44:32;36.72;;;22.23;;
39188;SDS011;24915;50.858;4.376;2023-02-22T04:46:58;32.08;;;19.95;;
39188;SDS011;24915;50.858;4.376;2023-02-22T04:49:23;33.08;;;20.20;;
39188;SDS011;24915;50.858;4.376;2023-02-22T04:51:49;30.08;;;19.38;;
39188;SDS011;24915;50.858;4.376;2023-02-22T04:54:15;29.17;;;17.55;;
39188;SDS011;24915;50.858;4.376;2023-02-22T04:56:43;31.45;;;18.58;;
39188;SDS011;24915;50.858;4.376;2023-02-22T04:59:10;28.00;;;18.85;;
39188;SDS011;24915;50.858;4.376;2023-02-22T05:01:36;32.20;;;19.42;;
39188;SDS011;24915;50.858;4.376;2023-02-22T05:04:05;27.83;;;17.20;;
39188;SDS011;24915;50.858;4.376;2023-02-22T05:06:31;30.67;;;17.15;;
39188;SDS011;24915;50.858;4.376;2023-02-22T05:08:57;25.58;;;16.75;;
39188;SDS011;24915;50.858;4.376;2023-02-22T05:11:23;25.85;;;17.10;;
39188;SDS011;24915;50.858;4.376;2023-02-22T05:13:49;25.85;;;17.08;;
39188;SDS011;24915;50.858;4.376;2023-02-22T05:16:15;23.58;;;16.27;;
39188;SDS011;24915;50.858;4.376;2023-02-22T05:18:40;25.42;;;16.98;;
39188;SDS011;24915;50.858;4.376;2023-02-22T05:21:06;28.73;;;16.88;;
39188;SDS011;24915;50.858;4.376;2023-02-22T05:23:32;28.17;;;15.90;;
39188;SDS011;24915;50.858;4.376;2023-02-22T05:25:58;27.58;;;16.73;;
39188;SDS011;24915;50.858;4.376;2023-02-22T05:28:24;26.80;;;15.80;;
39188;SDS011;24915;50.858;4.376;2023-02-22T05:30:50;26.30;;;17.25;;
39188;SDS011;24915;50.858;4.376;2023-02-22T05:33:15;30.65;;;17.10;;
39188;SDS011;24915;50.858;4.376;2023-02-22T05:35:42;28.00;;;17.33;;
39188;SDS011;24915;50.858;4.376;2023-02-22T05:38:08;25.80;;;16.10;;
39188;SDS011;24915;50.858;4.376;2023-02-22T05:40:39;27.00;;;16.83;;
39188;SDS011;24915;50.858;4.376;2023-02-22T05:43:05;26.25;;;16.27;;
39188;SDS011;24915;50.858;4.376;2023-02-22T05:45:31;28.50;;;16.63;;
39188;SDS011;24915;50.858;4.376;2023-02-22T05:47:57;25.17;;;16.10;;
39188;SDS011;24915;50.858;4.376;2023-02-22T05:50:23;24.15;;;16.00;;
39188;SDS011;24915;50.858;4.376;2023-02-22T05:52:49;31.23;;;16.45;;
39188;SDS011;24915;50.858;4.376;2023-02-22T05:55:16;29.15;;;17.08;;
39188;SDS011;24915;50.858;4.376;2023-02-22T05:57:43;25.95;;;17.25;;
39188;SDS011;24915;50.858;4.376;2023-02-22T06:00:10;28.55;;;15.63;;
39188;SDS011;24915;50.858;4.376;2023-02-22T06:02:39;21.40;;;14.60;;
39188;SDS011;24915;50.858;4.376;2023-02-22T06:05:05;21.42;;;15.07;;
39188;SDS011;24915;50.858;4.376;2023-02-22T06:07:31;23.60;;;15.13;;
39188;SDS011;24915;50.858;4.376;2023-02-22T06:09:57;28.27;;;16.75;;
39188;SDS011;24915;50.858;4.376;2023-02-22T06:12:22;22.30;;;15.20;;
39188;SDS011;24915;50.858;4.376;2023-02-22T06:14:48;23.08;;;15.52;;
39188;SDS011;24915;50.858;4.376;2023-02-22T06:17:14;26.23;;;15.20;;
39188;SDS011;24915;50.858;4.376;2023-02-22T06:19:40;25.48;;;15.18;;
39188;SDS011;24915;50.858;4.376;2023-02-22T06:22:06;23.13;;;14.57;;
39188;SDS011;24915;50.858;4.376;2023-02-22T06:24:32;22.40;;;14.00;;
39188;SDS011;24915;50.858;4.376;2023-02-22T06:26:59;24.33;;;14.10;;
39188;SDS011;24915;50.858;4.376;2023-02-22T06:29:26;21.83;;;14.45;;
39188;SDS011;24915;50.858;4.376;2023-02-22T06:31:53;24.38;;;14.45;;
39188;SDS011;24915;50.858;4.376;2023-02-22T06:34:20;26.63;;;14.07;;
39188;SDS011;24915;50.858;4.376;2023-02-22T06:36:46;20.08;;;14.35;;
39188;SDS011;24915;50.858;4.376;2023-02-22T06:39:16;23.60;;;13.38;;
39188;SDS011;24915;50.858;4.376;2023-02-22T06:41:43;21.85;;;13.23;;
39188;SDS011;24915;50.858;4.376;2023-02-22T06:44:11;21.65;;;12.88;;
39188;SDS011;24915;50.858;4.376;2023-02-22T06:46:38;25.35;;;13.57;;
39188;SDS011;24915;50.858;4.376;2023-02-22T06:49:03;30.13;;;13.82;;
39188;SDS011;24915;50.858;4.376;2023-02-22T06:51:29;28.02;;;13.23;;
39188;SDS011;24915;50.858;4.376;2023-02-22T06:53:59;23.85;;;12.77;;
39188;SDS011;24915;50.858;4.376;2023-02-22T06:56:25;21.50;;;13.55;;
39188;SDS011;24915;50.858;4.376;2023-02-22T06:58:51;23.50;;;14.05;;
39188;SDS011;24915;50.858;4.376;2023-02-22T07:01:16;21.48;;;12.75;;
39188;SDS011;24915;50.858;4.376;2023-02-22T07:03:42;22.77;;;13.23;;
39188;SDS011;24915;50.858;4.376;2023-02-22T07:06:08;25.10;;;13.45;;
39188;SDS011;24915;50.858;4.376;2023-02-22T07:08:34;21.73;;;12.25;;
39188;SDS011;24915;50.858;4.376;2023-02-22T07:11:06;23.38;;;14.30;;
39188;SDS011;24915;50.858;4.376;2023-02-22T07:13:32;30.23;;;15.15;;
39188;SDS011;24915;50.858;4.376;2023-02-22T07:15:57;28.85;;;15.50;;
39188;SDS011;24915;50.858;4.376;2023-02-22T07:18:23;22.58;;;14.70;;
39188;SDS011;24915;50.858;4.376;2023-02-22T07:20:49;23.95;;;14.70;;
39188;SDS011;24915;50.858;4.376;2023-02-22T07:23:15;28.70;;;15.40;;
39188;SDS011;24915;50.858;4.376;2023-02-22T07:25:41;27.13;;;14.77;;
39188;SDS011;24915;50.858;4.376;2023-02-22T07:28:08;29.67;;;15.07;;
39188;SDS011;24915;50.858;4.376;2023-02-22T07:30:35;28.42;;;14.07;;
39188;SDS011;24915;50.858;4.376;2023-02-22T07:33:05;28.27;;;14.77;;
39188;SDS011;24915;50.858;4.376;2023-02-22T07:35:36;25.27;;;14.15;;
39188;SDS011;24915;50.858;4.376;2023-02-22T07:38:07;26.80;;;14.10;;
39188;SDS011;24915;50.858;4.376;2023-02-22T07:40:33;24.20;;;14.07;;
39188;SDS011;24915;50.858;4.376;2023-02-22T07:43:01;31.17;;;15.00;;
39188;SDS011;24915;50.858;4.376;2023-02-22T07:45:48;31.42;;;15.65;;
39188;SDS011;24915;50.858;4.376;2023-02-22T07:48:15;25.45;;;14.48;;
39188;SDS011;24915;50.858;4.376;2023-02-22T07:50:42;29.48;;;13.43;;
39188;SDS011;24915;50.858;4.376;2023-02-22T07:53:12;32.55;;;14.80;;
39188;SDS011;24915;50.858;4.376;2023-02-22T07:55:42;28.17;;;13.90;;
39188;SDS011;24915;50.858;4.376;2023-02-22T07:58:08;29.17;;;14.60;;
39188;SDS011;24915;50.858;4.376;2023-02-22T08:00:39;20.95;;;13.70;;
39188;SDS011;24915;50.858;4.376;2023-02-22T08:03:06;21.67;;;13.10;;
39188;SDS011;24915;50.858;4.376;2023-02-22T08:05:34;27.30;;;14.40;;
39188;SDS011;24915;50.858;4.376;2023-02-22T08:08:01;25.83;;;14.27;;
39188;SDS011;24915;50.858;4.376;2023-02-22T08:10:28;31.70;;;14.80;;
39188;SDS011;24915;50.858;4.376;2023-02-22T08:12:55;23.02;;;14.00;;
39188;SDS011;24915;50.858;4.376;2023-02-22T08:15:23;24.52;;;13.90;;
39188;SDS011;24915;50.858;4.376;2023-02-22T08:17:50;26.38;;;13.38;;
39188;SDS011;24915;50.858;4.376;2023-02-22T08:20:17;28.25;;;12.93;;
39188;SDS011;24915;50.858;4.376;2023-02-22T08:22:43;28.13;;;14.05;;
39188;SDS011;24915;50.858;4.376;2023-02-22T08:25:09;28.63;;;14.02;;
39188;SDS011;24915;50.858;4.376;2023-02-22T08:27:36;26.98;;;12.80;;
39188;SDS011;24915;50.858;4.376;2023-02-22T08:30:02;27.70;;;14.07;;
39188;SDS011;24915;50.858;4.376;2023-02-22T08:32:28;24.77;;;14.05;;
39188;SDS011;24915;50.858;4.376;2023-02-22T08:34:54;33.75;;;16.27;;
39188;SDS011;24915;50.858;4.376;2023-02-22T08:37:19;24.25;;;13.10;;
39188;SDS011;24915;50.858;4.376;2023-02-22T08:39:45;20.95;;;13.23;;
39188;SDS011;24915;50.858;4.376;2023-02-22T08:42:10;21.80;;;13.52;;
39188;SDS011;24915;50.858;4.376;2023-02-22T08:44:37;26.70;;;12.85;;
39188;SDS011;24915;50.858;4.376;2023-02-22T08:47:03;31.83;;;14.48;;
39188;SDS011;24915;50.858;4.376;2023-02-22T08:49:30;22.73;;;13.18;;
39188;SDS011;24915;50.858;4.376;2023-02-22T08:51:55;19.13;;;12.98;;
39188;SDS011;24915;50.858;4.376;2023-02-22T08:54:21;22.67;;;12.25;;
39188;SDS011;24915;50.858;4.376;2023-02-22T08:56:48;25.90;;;12.63;;
39188;SDS011;24915;50.858;4.376;2023-02-22T08:59:14;25.77;;;13.95;;
39188;SDS011;24915;50.858;4.376;2023-02-22T09:01:40;29.52;;;14.95;;
39188;SDS011;24915;50.858;4.376;2023-02-22T09:04:06;27.05;;;14.10;;
39188;SDS011;24915;50.858;4.376;2023-02-22T09:06:32;25.00;;;14.15;;
39188;SDS011;24915;50.858;4.376;2023-02-22T09:08:58;29.70;;;14.75;;
39188;SDS011;24915;50.858;4.376;2023-02-22T09:11:23;29.05;;;15.50;;
39188;SDS011;24915;50.858;4.376;2023-02-22T09:13:49;24.25;;;15.18;;
39188;SDS011;24915;50.858;4.376;2023-02-22T09:16:15;27.27;;;15.60;;
39188;SDS011;24915;50.858;4.376;2023-02-22T09:18:40;27.17;;;15.50;;
39188;SDS011;24915;50.858;4.376;2023-02-22T09:21:07;26.38;;;15.55;;
39188;SDS011;24915;50.858;4.376;2023-02-22T09:23:33;31.05;;;18.08;;
39188;SDS011;24915;50.858;4.376;2023-02-22T09:25:59;28.15;;;15.75;;
39188;SDS011;24915;50.858;4.376;2023-02-22T09:28:27;28.13;;;14.88;;
39188;SDS011;24915;50.858;4.376;2023-02-22T09:30:53;27.63;;;15.32;;
39188;SDS011;24915;50.858;4.376;2023-02-22T09:33:20;29.17;;;16.73;;
39188;SDS011;24915;50.858;4.376;2023-02-22T09:35:46;25.98;;;16.13;;
39188;SDS011;24915;50.858;4.376;2023-02-22T09:38:15;28.08;;;16.55;;
39188;SDS011;24915;50.858;4.376;2023-02-22T09:40:45;27.80;;;16.35;;
39188;SDS011;24915;50.858;4.376;2023-02-22T09:51:23;28.48;;;16.98;;
39188;SDS011;24915;50.858;4.376;2023-02-22T09:53:54;31.40;;;17.23;;
39188;SDS011;24915;50.858;4.376;2023-02-22T09:56:23;33.05;;;17.52;;
39188;SDS011;24915;50.858;4.376;2023-02-22T09:58:52;30.08;;;17.83;;
39188;SDS011;24915;50.858;4.376;2023-02-22T10:01:28;31.00;;;17.52;;
39188;SDS011;24915;50.858;4.376;2023-02-22T10:06:34;30.08;;;17.75;;
39188;SDS011;24915;50.858;4.376;2023-02-22T10:09:03;32.08;;;17.65;;
39188;SDS011;24915;50.858;4.376;2023-02-22T10:27:41;46.80;;;20.20;;
39188;SDS011;24915;50.858;4.376;2023-02-22T10:33:35;37.45;;;20.52;;
39188;SDS011;24915;50.858;4.376;2023-02-22T10:35:57;37.33;;;20.50;;
39188;SDS011;24915;50.858;4.376;2023-02-22T10:43:37;34.90;;;20.58;;
39188;SDS011;24915;50.858;4.376;2023-02-22T10:46:07;38.27;;;20.40;;
39188;SDS011;24915;50.858;4.376;2023-02-22T10:48:41;37.65;;;21.80;;
39188;SDS011;24915;50.858;4.376;2023-02-22T10:51:09;36.95;;;20.90;;
39188;SDS011;24915;50.858;4.376;2023-02-22T10:53:36;35.20;;;20.70;;
39188;SDS011;24915;50.858;4.376;2023-02-22T10:56:18;36.85;;;21.45;;
39188;SDS011;24915;50.858;4.376;2023-02-22T11:03:55;45.78;;;21.35;;
39188;SDS011;24915;50.858;4.376;2023-02-22T11:06:28;38.72;;;21.88;;
39188;SDS011;24915;50.858;4.376;2023-02-22T11:09:16;36.25;;;22.00;;
39188;SDS011;24915;50.858;4.376;2023-02-22T11:11:46;39.75;;;23.10;;
39188;SDS011;24915;50.858;4.376;2023-02-22T11:14:34;36.28;;;22.65;;
39188;SDS011;24915;50.858;4.376;2023-02-22T11:16:59;34.80;;;22.90;;
39188;SDS011;24915;50.858;4.376;2023-02-22T11:19:30;38.35;;;24.35;;
39188;SDS011;24915;50.858;4.376;2023-02-22T11:22:12;37.13;;;23.35;;
39188;SDS011;24915;50.858;4.376;2023-02-22T11:24:47;38.72;;;22.55;;
39188;SDS011;24915;50.858;4.376;2023-02-22T11:29:58;50.03;;;25.55;;
39188;SDS011;24915;50.858;4.376;2023-02-22T11:32:48;41.20;;;24.15;;
39188;SDS011;24915;50.858;4.376;2023-02-22T11:37:52;46.15;;;25.67;;
39188;SDS011;24915;50.858;4.376;2023-02-22T11:40:35;39.28;;;23.60;;
39188;SDS011;24915;50.858;4.376;2023-02-22T11:43:35;43.03;;;25.42;;
39188;SDS011;24915;50.858;4.376;2023-02-22T11:46:00;38.80;;;24.58;;
39188;SDS011;24915;50.858;4.376;2023-02-22T11:48:36;39.30;;;25.10;;
39188;SDS011;24915;50.858;4.376;2023-02-22T11:51:16;42.85;;;25.05;;
39188;SDS011;24915;50.858;4.376;2023-02-22T11:53:51;42.58;;;25.60;;
39188;SDS011;24915;50.858;4.376;2023-02-22T11:56:38;42.13;;;26.35;;
39188;SDS011;24915;50.858;4.376;2023-02-22T11:59:11;44.67;;;26.98;;
39188;SDS011;24915;50.858;4.376;2023-02-22T12:01:42;44.63;;;27.50;;
39188;SDS011;24915;50.858;4.376;2023-02-22T12:12:17;49.15;;;30.23;;
39188;SDS011;24915;50.858;4.376;2023-02-22T12:20:44;51.78;;;32.30;;
39188;SDS011;24915;50.858;4.376;2023-02-22T12:25:58;57.60;;;33.40;;
39188;SDS011;24915;50.858;4.376;2023-02-22T12:28:30;51.00;;;33.55;;
39188;SDS011;24915;50.858;4.376;2023-02-22T12:31:12;60.53;;;37.10;;
39188;SDS011;24915;50.858;4.376;2023-02-22T12:36:40;52.67;;;35.25;;
39188;SDS011;24915;50.858;4.376;2023-02-22T12:42:09;58.75;;;38.85;;
39188;SDS011;24915;50.858;4.376;2023-02-22T12:44:42;57.70;;;36.08;;
39188;SDS011;24915;50.858;4.376;2023-02-22T12:47:14;60.08;;;37.10;;
39188;SDS011;24915;50.858;4.376;2023-02-22T12:49:57;59.10;;;35.72;;
39188;SDS011;24915;50.858;4.376;2023-02-22T12:52:39;53.03;;;35.42;;
39188;SDS011;24915;50.858;4.376;2023-02-22T12:55:19;56.55;;;35.60;;
39188;SDS011;24915;50.858;4.376;2023-02-22T13:00:42;50.05;;;32.08;;
39188;SDS011;24915;50.858;4.376;2023-02-22T13:06:00;45.67;;;29.80;;
39188;SDS011;24915;50.858;4.376;2023-02-22T13:08:53;51.03;;;29.92;;
39188;SDS011;24915;50.858;4.376;2023-02-22T13:11:53;45.53;;;30.13;;
39188;SDS011;24915;50.858;4.376;2023-02-22T13:14:40;48.67;;;30.17;;
39188;SDS011;24915;50.858;4.376;2023-02-22T13:28:06;46.45;;;30.50;;
39188;SDS011;24915;50.858;4.376;2023-02-22T13:31:01;51.75;;;32.95;;
39188;SDS011;24915;50.858;4.376;2023-02-22T13:33:56;58.35;;;35.17;;
39188;SDS011;24915;50.858;4.376;2023-02-22T13:36:51;56.83;;;34.67;;
39188;SDS011;24915;50.858;4.376;2023-02-22T13:42:12;54.80;;;35.22;;
39188;SDS011;24915;50.858;4.376;2023-02-22T13:53:23;54.90;;;34.83;;
39188;SDS011;24915;50.858;4.376;2023-02-22T13:55:52;56.80;;;35.78;;
39188;SDS011;24915;50.858;4.376;2023-02-22T13:58:23;54.88;;;35.20;;
39188;SDS011;24915;50.858;4.376;2023-02-22T14:00:54;59.10;;;35.30;;
39188;SDS011;24915;50.858;4.376;2023-02-22T14:06:01;57.70;;;35.40;;
39188;SDS011;24915;50.858;4.376;2023-02-22T14:16:26;59.42;;;37.83;;
39188;SDS011;24915;50.858;4.376;2023-02-22T14:19:00;65.35;;;39.85;;
39188;SDS011;24915;50.858;4.376;2023-02-22T14:21:26;61.33;;;39.92;;
39188;SDS011;24915;50.858;4.376;2023-02-22T14:23:52;62.40;;;39.17;;
39188;SDS011;24915;50.858;4.376;2023-02-22T14:31:36;68.53;;;39.97;;
39188;SDS011;24915;50.858;4.376;2023-02-22T14:34:44;64.10;;;41.85;;
39188;SDS011;24915;50.858;4.376;2023-02-22T14:37:27;70.93;;;43.20;;
39188;SDS011;24915;50.858;4.376;2023-02-22T14:42:38;70.72;;;43.10;;
39188;SDS011;24915;50.858;4.376;2023-02-22T14:50:32;70.75;;;45.97;;
39188;SDS011;24915;50.858;4.376;2023-02-22T14:55:37;72.40;;;44.25;;
39188;SDS011;24915;50.858;4.376;2023-02-22T14:58:14;72.53;;;45.75;;
39188;SDS011;24915;50.858;4.376;2023-02-22T15:00:45;73.75;;;44.03;;
39188;SDS011;24915;50.858;4.376;2023-02-22T15:06:02;72.88;;;44.80;;
39188;SDS011;24915;50.858;4.376;2023-02-22T15:08:39;85.28;;;47.20;;
39188;SDS011;24915;50.858;4.376;2023-02-22T15:11:11;80.72;;;46.75;;
39188;SDS011;24915;50.858;4.376;2023-02-22T15:13:52;73.30;;;44.58;;
39188;SDS011;24915;50.858;4.376;2023-02-22T15:16:19;76.88;;;45.78;;
39188;SDS011;24915;50.858;4.376;2023-02-22T15:18:47;86.15;;;50.83;;
39188;SDS011;24915;50.858;4.376;2023-02-22T15:21:18;81.40;;;47.33;;
39188;SDS011;24915;50.858;4.376;2023-02-22T15:23:47;77.20;;;46.20;;
39188;SDS011;24915;50.858;4.376;2023-02-22T15:26:25;75.38;;;45.33;;
39188;SDS011;24915;50.858;4.376;2023-02-22T15:31:53;73.75;;;45.97;;
39188;SDS011;24915;50.858;4.376;2023-02-22T15:34:25;69.47;;;44.17;;
39188;SDS011;24915;50.858;4.376;2023-02-22T15:36:55;72.40;;;44.97;;
39188;SDS011;24915;50.858;4.376;2023-02-22T15:44:37;76.45;;;44.95;;
39188;SDS011;24915;50.858;4.376;2023-02-22T15:47:05;86.32;;;47.75;;
39188;SDS011;24915;50.858;4.376;2023-02-22T15:49:37;90.18;;;47.88;;
39188;SDS011;24915;50.858;4.376;2023-02-22T15:52:04;77.00;;;46.40;;
39188;SDS011;24915;50.858;4.376;2023-02-22T15:54:40;88.85;;;49.65;;
39188;SDS011;24915;50.858;4.376;2023-02-22T15:57:15;87.13;;;46.92;;
39188;SDS011;24915;50.858;4.376;2023-02-22T15:59:44;81.95;;;46.47;;
39188;SDS011;24915;50.858;4.376;2023-02-22T16:02:18;82.38;;;46.03;;
39188;SDS011;24915;50.858;4.376;2023-02-22T16:04:58;93.05;;;49.15;;
39188;SDS011;24915;50.858;4.376;2023-02-22T16:07:27;84.50;;;47.53;;
39188;SDS011;24915;50.858;4.376;2023-02-22T16:09:53;83.53;;;47.53;;
39188;SDS011;24915;50.858;4.376;2023-02-22T16:14:45;82.68;;;45.72;;
39188;SDS011;24915;50.858;4.376;2023-02-22T16:22:37;87.80;;;46.75;;
39188;SDS011;24915;50.858;4.376;2023-02-22T16:27:42;93.18;;;48.00;;
39188;SDS011;24915;50.858;4.376;2023-02-22T16:32:46;101.22;;;49.28;;
39188;SDS011;24915;50.858;4.376;2023-02-22T16:35:13;98.95;;;49.15;;
39188;SDS011;24915;50.858;4.376;2023-02-22T16:37:46;96.55;;;50.47;;
39188;SDS011;24915;50.858;4.376;2023-02-22T16:40:22;99.72;;;50.20;;
39188;SDS011;24915;50.858;4.376;2023-02-22T16:43:06;84.57;;;40.80;;
39188;SDS011;24915;50.858;4.376;2023-02-22T16:45:35;101.25;;;51.03;;
39188;SDS011;24915;50.858;4.376;2023-02-22T16:48:01;107.20;;;52.65;;
39188;SDS011;24915;50.858;4.376;2023-02-22T16:50:42;101.25;;;51.20;;
39188;SDS011;24915;50.858;4.376;2023-02-22T16:53:07;109.35;;;52.58;;
39188;SDS011;24915;50.858;4.376;2023-02-22T16:55:34;110.20;;;58.22;;
39188;SDS011;24915;50.858;4.376;2023-02-22T16:58:03;103.97;;;52.80;;
39188;SDS011;24915;50.858;4.376;2023-02-22T17:00:29;106.85;;;52.03;;
39188;SDS011;24915;50.858;4.376;2023-02-22T17:02:59;103.10;;;53.42;;
39188;SDS011;24915;50.858;4.376;2023-02-22T17:05:32;114.53;;;54.92;;
39188;SDS011;24915;50.858;4.376;2023-02-22T17:08:04;116.75;;;54.60;;
39188;SDS011;24915;50.858;4.376;2023-02-22T17:10:31;109.70;;;54.55;;
39188;SDS011;24915;50.858;4.376;2023-02-22T17:12:57;117.93;;;54.70;;
39188;SDS011;24915;50.858;4.376;2023-02-22T17:15:26;117.38;;;54.33;;
39188;SDS011;24915;50.858;4.376;2023-02-22T17:18:03;120.25;;;55.65;;
39188;SDS011;24915;50.858;4.376;2023-02-22T17:20:38;113.50;;;52.33;;
39188;SDS011;24915;50.858;4.376;2023-02-22T17:23:04;107.78;;;51.90;;
39188;SDS011;24915;50.858;4.376;2023-02-22T17:28:03;124.90;;;53.88;;
39188;SDS011;24915;50.858;4.376;2023-02-22T17:30:30;109.75;;;54.83;;
39188;SDS011;24915;50.858;4.376;2023-02-22T17:32:58;117.53;;;55.78;;
39188;SDS011;24915;50.858;4.376;2023-02-22T17:35:31;113.30;;;53.20;;
39188;SDS011;24915;50.858;4.376;2023-02-22T17:37:59;118.60;;;53.85;;
39188;SDS011;24915;50.858;4.376;2023-02-22T17:40:28;124.13;;;57.67;;
39188;SDS011;24915;50.858;4.376;2023-02-22T17:42:54;117.53;;;55.33;;
39188;SDS011;24915;50.858;4.376;2023-02-22T17:45:20;118.97;;;55.58;;